Latest Coastal Weather Observations for St Helens

IDT60701

Issued at 8:02 am EST Saturday 28 May 2016 (issued every 10 minutes, with the page automatically refreshed every 10 minutes)

About coastal observations | Map of coastal stations | Coastal observations for TAS | Marine services | Other Formats
Station Details ID: 092120 Name: ST HELENS AERODROME Lat: -41.34 Lon: 148.28 Height: 48.0 m
Data from the previous 72 hours. | See also: Recent months at St Helens
Date/Time
EST
Temp

°C
Wind Pressure Rain
since 9am
mm
Weather Cloud Vis
km
Sea
Height
m
Swell
Dir
 
Speed
knots
Gust
knots
hPa Trend Height
m
Period
s
Dir
28/08:00am 7.8 CALM 0 0 1007.4 - 9.0 - Partly cloudy - - - - -
28/07:30am 8.2 WSW 1 4 1007.2 - 9.0 - - - - - - -
28/07:00am 8.3 SSW 6 9 1006.9 - 9.0 - Partly cloudy - - - - -
28/06:30am 8.7 SW 3 5 1006.9 - 9.0 - Partly cloudy - - - - -
28/06:00am 9.1 NW 3 6 1006.8 - 9.0 - Mostly cloudy - - - - -
28/05:30am 9.0 NNW 4 6 1006.5 - 9.0 - Partly cloudy - - - - -
28/05:00am 9.5 NW 2 4 1006.5 - 9.0 - Partly cloudy - - - - -
28/04:30am 9.0 SSW 5 8 1006.3 - 9.0 - Cloudy - - - - -
28/04:00am 9.1 SW 4 8 1006.3 - 9.0 - Cloudy - - - - -
28/03:30am 8.7 SW 5 8 1006.3 - 9.0 - Cloudy - - - - -
28/03:00am 8.7 SSW 4 6 1006.5 - 9.0 - Mostly cloudy - - - - -
28/02:30am 8.9 SW 3 7 1006.5 - 9.0 - Partly cloudy - - - - -
28/02:00am 8.5 W 3 4 1006.4 - 9.0 - Cloudy - - - - -
28/01:30am 8.1 CALM 0 0 1006.4 - 9.0 - Cloudy - - - - -
28/01:00am 8.2 SSW 2 4 1006.5 - 9.0 - Cloudy - - - - -
28/12:30am 8.1 WSW 1 4 1006.5 - 8.8 - Cloudy - - - - -
28/12:00am 8.4 WSW 2 4 1006.7 - 8.8 - Cloudy - - - - -
 
Date/Time
EST
Temp

°C
Wind Pressure Rain
since 9am
mm
Weather Cloud Vis
km
Sea
Height
m
Swell
Dir
 
Speed
knots
Gust
knots
hPa Trend Height
m
Period
s
Dir
27/11:30pm 8.3 SW 4 6 1006.6 - 8.8 - Partly cloudy - - - - -
27/11:00pm 8.5 SW 4 6 1006.6 - 8.8 - Partly cloudy - - - - -
27/10:30pm 8.5 SSW 6 8 1006.5 - 8.6 - Partly cloudy - - - - -
27/10:00pm 8.7 SW 4 8 1006.5 - 8.6 - Partly cloudy - - - - -
27/09:30pm 8.8 SSW 5 8 1006.5 - 8.6 - Partly cloudy - - - - -
27/09:00pm 9.0 WSW 4 6 1006.4 - 8.4 - Mostly cloudy - - - - -
27/08:30pm 9.1 SW 4 7 1006.2 - 8.4 - Partly cloudy - - - - -
27/08:00pm 8.8 SW 5 7 1006.0 - 8.4 - Partly cloudy - - - - -
27/07:30pm 9.1 SW 5 11 1005.8 - 8.4 - Partly cloudy - - - - -
27/07:00pm 8.9 SSW 3 5 1005.6 - 8.4 - Cloudy - - - - -
27/06:30pm 8.9 SW 4 6 1005.3 - 8.4 - Partly cloudy - - - - -
27/06:00pm 8.9 SSW 3 5 1005.2 - 8.4 - Cloudy - - - - -
27/05:30pm 8.9 SW 5 7 1004.7 - 8.2 - Partly cloudy - - - - -
27/05:00pm 9.1 SW 4 6 1004.5 - 8.2 - Cloudy - - - - -
27/04:30pm 9.3 SSW 4 6 1004.1 - 8.2 - Partly cloudy - - - - -
27/04:00pm 9.4 SSW 4 6 1003.7 - 8.2 - Partly cloudy - - - - -
27/03:30pm 9.5 SSW 4 6 1003.4 - 8.2 - Partly cloudy - - - - -
27/03:00pm 9.7 SW 2 4 1003.2 - 8.2 - Cloudy - - - - -
27/02:30pm 9.6 WSW 2 5 1002.9 - 8.0 - Partly cloudy - - - - -
27/02:00pm 9.4 SW 4 5 1002.8 - 8.0 - Partly cloudy - - - - -
27/01:30pm 9.2 CALM 0 3 1002.8 - 7.8 - Partly cloudy - - - - -
27/01:00pm 9.1 W 3 5 1002.7 - 7.4 - Cloudy - - - - -
27/12:30pm 8.8 SSW 5 8 1002.5 - 6.8 - Cloudy - - - - -
27/12:00pm 8.6 WSW 5 7 1002.7 - 6.0 - Cloudy - - - - -
27/11:30am 8.7 SW 5 7 1002.8 - 5.2 - Cloudy - - - - -
27/11:00am 8.5 SW 5 8 1002.9 - 4.6 - Cloudy - - - - -
27/10:30am 8.2 SSW 6 10 1003.0 - 3.8 - Cloudy - - - - -
27/10:00am 8.2 SSW 8 11 1002.9 - 2.8 - Cloudy - - - - -
27/09:30am 8.1 SSW 8 14 1002.5 - 1.6 - Cloudy - - - - -
27/09:00am 7.8 SSW 7 11 1002.6 - 56.6 Rain Cloudy 1 - - - -
27/08:30am 7.7 SSW 8 14 1002.2 - 55.0 - Cloudy - - - - -
27/08:00am 7.6 SSW 7 12 1002.0 - 53.6 - Cloudy - - - - -
27/07:30am 7.4 SSW 6 11 1001.7 - 52.4 - Cloudy - - - - -
27/07:00am 7.4 SSW 8 13 1001.4 - 51.0 - Cloudy - - - - -
27/06:30am 7.5 SSW 9 14 1001.1 - 49.6 - Cloudy - - - - -
27/06:00am 7.4 SSW 7 16 1001.1 - 48.6 - Cloudy - - - - -
27/05:30am 7.4 SSW 8 14 1000.9 - 47.6 - Cloudy - - - - -
27/05:00am 7.4 SSW 8 13 1000.8 - 46.0 - Cloudy - - - - -
27/04:30am 7.5 SSW 10 16 1000.6 - 44.0 - Cloudy - - - - -
27/04:00am 7.6 SSW 9 14 1000.5 - 41.8 - Cloudy - - - - -
27/03:30am 7.5 SW 9 14 1000.4 - 40.2 - Cloudy - - - - -
27/03:00am 7.4 SSW 8 13 1000.6 - 38.4 - Cloudy - - - - -
27/02:30am 7.4 SSW 9 18 1000.6 - 36.6 - Cloudy - - - - -
27/02:00am 7.4 SW 9 16 1000.4 - 35.2 - Cloudy - - - - -
27/01:30am 7.5 SSW 7 12 1000.4 - 33.4 - Cloudy - - - - -
27/01:00am 7.5 SW 8 15 1000.4 - 31.2 - Cloudy - - - - -
27/12:30am 7.6 SW 8 15 1000.6 - 29.2 - Cloudy - - - - -
27/12:00am 7.8 SW 9 14 1000.6 - 28.0 - Cloudy - - - - -
 
Date/Time
EST
Temp

°C
Wind Pressure Rain
since 9am
mm
Weather Cloud Vis
km
Sea
Height
m
Swell
Dir
 
Speed
knots
Gust
knots
hPa Trend Height
m
Period
s
Dir
26/11:30pm 8.0 SW 8 14 1000.7 - 27.0 - Cloudy - - - - -
26/11:00pm 8.3 SW 9 13 1000.4 - 26.0 - Cloudy - - - - -
26/10:30pm 8.3 SW 7 12 1000.5 - 24.8 - Cloudy - - - - -
26/10:00pm 8.3 SW 7 11 1000.6 - 23.6 - Cloudy - - - - -
26/09:30pm 8.2 SW 8 13 1000.6 - 22.2 - Partly cloudy - - - - -
26/09:00pm 8.2 SW 7 11 1000.6 - 21.8 - Cloudy - - - - -
26/08:30pm 8.2 SSW 7 10 1000.5 - 21.6 - Partly cloudy - - - - -
26/08:00pm 8.2 SSW 8 12 1000.5 - 21.4 - Cloudy - - - - -
26/07:30pm 8.4 SSW 8 15 1000.5 - 21.0 - Cloudy - - - - -
26/07:00pm 8.7 SSW 7 12 1000.5 - 20.4 - Partly cloudy - - - - -
26/06:30pm 8.9 SSW 6 9 1000.3 - 19.6 - Cloudy - - - - -
26/06:00pm 9.0 SSW 6 8 1000.1 - 19.0 - Cloudy - - - - -
26/05:30pm 9.1 SSW 7 10 999.8 - 19.0 - Partly cloudy - - - - -
26/05:00pm 9.2 S 8 11 999.6 - 18.4 - Cloudy - - - - -
26/04:30pm 9.5 S 9 12 999.4 - 17.6 - Partly cloudy - - - - -
26/04:00pm 9.7 S 9 13 999.3 - 16.8 - Cloudy - - - - -
26/03:30pm 10.0 S 10 14 999.2 - 15.6 - Partly cloudy - - - - -
26/03:00pm 10.3 S 8 12 999.3 - 14.2 - Cloudy - - - - -
26/02:30pm 10.6 S 6 10 999.2 - 13.2 - Partly cloudy - - - - -
26/02:00pm 10.8 S 6 9 999.2 - 12.2 - Partly cloudy - - - - -
26/01:30pm 10.8 S 8 12 999.2 - 11.4 - Partly cloudy - - - - -
26/01:00pm 11.0 S 6 9 999.6 - 10.4 - Partly cloudy - - - - -
26/12:30pm 11.0 S 8 12 999.7 - 9.8 - Partly cloudy - - - - -
26/12:00pm 11.1 S 8 13 999.9 - 9.0 - Mostly cloudy - - - - -
26/11:30am 10.9 SSE 9 13 1000.3 - 8.4 - Cloudy - - - - -
26/11:14am 10.8 S 8 13 1000.6 - 7.2 - Partly cloudy - - - - -
26/11:00am 11.0 SSE 9 14 1000.9 - 5.8 - Partly cloudy - - - - -
26/10:30am 12.4 CALM 0 0 1001.1 - 2.6 - Partly cloudy - - - - -
26/10:13am 12.3 N 1 3 1001.2 - 2.2 - Partly cloudy - - - - -
26/10:00am 12.1 N 3 5 1001.3 - 2.0 - Partly cloudy - - - - -
26/09:34am 12.1 N 3 4 1001.3 - 1.2 - Partly cloudy - - - - -
26/09:30am 12.0 N 3 4 1001.3 - 1.0 - Partly cloudy - - - - -
26/09:00am 12.0 N 5 6 1001.5 - 2.2 Rain Cloudy 2 - - - -
26/08:30am 12.1 N 3 6 1001.6 - 1.4 - Partly cloudy - - - - -
26/08:12am 12.0 N 5 7 1001.6 - 1.2 - Partly cloudy - - - - -
26/08:00am 11.9 N 4 6 1001.5 - 0.8 - Cloudy - - - - -
26/07:30am 11.9 NNE 6 8 1001.6 - 0.6 - Partly cloudy - - - - -
26/07:06am 11.9 NNE 6 9 1001.6 - 0.4 - Partly cloudy - - - - -
26/07:00am 11.9 NNE 6 9 1001.6 - 0.4 - Partly cloudy - - - - -
26/06:30am 12.1 N 5 8 1001.7 - 0.4 - Cloudy - - - - -
26/06:00am 12.3 N 6 11 1001.9 - 0.4 - Mostly cloudy - - - - -
26/05:36am 12.6 N 6 9 1001.9 - 0.4 - Partly cloudy - - - - -
26/05:30am 12.5 N 7 9 1001.9 - 0.4 - Partly cloudy - - - - -
26/05:00am 12.7 N 6 9 1002.0 - 0.4 - Partly cloudy - - - - -
26/04:30am 12.7 NNW 5 9 1002.2 - 0.4 - Partly cloudy - - - - -
26/04:00am 12.8 NNW 6 10 1002.4 - 0.4 - Partly cloudy - - - - -
26/03:30am 12.6 NNW 6 10 1002.4 - 0.4 - Cloudy - - - - -
26/03:00am 12.6 NW 7 12 1002.8 - 0.4 - Mostly cloudy - - - - -
26/02:30am 12.7 NNW 8 14 1002.8 - 0.4 - Cloudy - - - - -
26/02:00am 12.5 NW 9 13 1003.1 - 0.4 - Partly cloudy - - - - -
26/01:30am 12.5 NNW 7 11 1003.4 - 0.4 - Partly cloudy - - - - -
26/01:00am 12.6 NNW 7 12 1003.7 - 0.4 - Partly cloudy - - - - -
26/12:30am 12.2 NNW 5 8 1004.1 - 0.4 - Partly cloudy - - - - -
26/12:00am 12.4 NNW 8 13 1004.6 - 0.4 - Mostly cloudy - - - - -
 
Date/Time
EST
Temp

°C
Wind Pressure Rain
since 9am
mm
Weather Cloud Vis
km
Sea
Height
m
Swell
Dir
 
Speed
knots
Gust
knots
hPa Trend Height
m
Period
s
Dir
25/11:30pm 12.6 NNW 6 10 1004.9 - 0.4 - Partly cloudy - - - - -
25/11:00pm 12.9 NNW 7 10 1005.2 - 0.4 - Partly cloudy - - - - -
25/10:30pm 13.3 WNW 8 14 1005.4 - 0.4 - Cloudy - - - - -
25/10:00pm 13.1 W 10 16 1005.3 - 0.4 - Partly cloudy - - - - -
25/09:30pm 11.8 N 6 8 1006.0 - 0.4 - Partly cloudy - - - - -
25/09:00pm 11.3 NNE 5 6 1006.2 - 0.4 - Cloudy - - - - -
25/08:30pm 11.0 NNE 1 5 1006.1 - 0.4 - Partly cloudy - - - - -
25/08:00pm 10.8 NNE 3 6 1006.2 - 0.0 - Partly cloudy - - - - -
25/07:30pm 10.9 NE 4 6 1006.5 - 0.0 - Partly cloudy - - - - -
25/07:00pm 10.7 NE 3 4 1006.8 - 0.0 - Partly cloudy - - - - -
25/06:30pm 10.8 N 3 4 1006.9 - 0.0 - Partly cloudy - - - - -
25/06:00pm 10.9 N 4 5 1007.3 - 0.0 - Mostly clear - - - - -
25/05:30pm 10.4 NE 5 7 1007.3 - 0.0 - Partly cloudy - - - - -
25/05:00pm 11.1 NNE 4 5 1007.6 - 0.0 - Cloudy - - - - -
25/04:30pm 11.5 N 6 8 1007.6 - 0.0 - Partly cloudy - - - - -
25/04:00pm 10.1 NE 3 4 1007.8 - 0.0 - - - - - - -
25/03:30pm 10.7 CALM 0 3 1008.0 - 0.0 - - - - - - -
25/03:00pm 10.7 N 4 5 1008.4 - 0.0 - - - - - - -
25/02:30pm 11.2 N 2 4 1008.6 - 0.0 - - - - - - -
25/02:00pm 12.4 NW 5 7 1009.1 - 0.0 - - - - - - -
25/01:30pm 10.9 NW 4 6 1009.5 - 0.0 - - - - - - -
25/01:00pm 9.9 NW 4 7 1009.5 - 0.0 - - - - - - -
25/12:30pm 10.1 NE 3 5 1009.7 - 0.0 - - - - - - -
25/12:00pm 9.0 CALM 0 3 1010.6 - 0.0 - - - - - - -
25/11:30am 8.4 CALM 0 0 1011.1 - 0.0 - - - - - - -
25/11:00am 6.4 N 1 4 1011.8 - 0.0 - - - - - - -
25/10:30am 5.3 NW 7 9 1012.3 - 0.0 - - - - - - -
25/10:00am 4.6 NW 7 9 1012.9 - 0.0 - - - - - - -
25/09:30am 3.1 NW 7 8 1013.1 - 0.0 - - - - - - -
25/09:00am 2.5 NW 6 7 1013.4 - 0.0 - - - - - - -
25/08:30am 1.6 NNW 7 9 1013.4 - 0.0 - - - - - - -

Other Formats:

Comma delimited format used in spreadsheet applications
http://www.bom.gov.au/fwo/IDT60701/IDT60701.95981.axf

JavaScript Object Notation format (JSON) in row-major order
http://www.bom.gov.au/fwo/IDT60701/IDT60701.95981.json